Time;durP1;ratioP1;P1;durP2;ratioP2;P2;SDS_P1;SDS_P2;PMS_P1;PMS_P2;Temp;Humidity;BMP_temperature;BMP_pressure;BME280_temperature;BME280_humidity;BME280_pressure;Samples;Min_cycle;Max_cycle;Signal;HPM_P1;HPM_P2
2022/04/16 00:00:22;;;;;;;4.30;2.80;;;;;;101118.73;;;;107119;1276;64759;-32
2022/04/16 00:03:03;;;;;;;4.60;2.80;;;;;;101121.92;;;;107105;1276;64821;-30
2022/04/16 00:05:32;;;;;;;5.10;3.00;;;;;;101123.02;;;;107136;1276;64907;-31
2022/04/16 00:08:09;;;;;;;4.70;2.70;;;;;;101125.55;;;;107114;1276;65273;-34
2022/04/16 00:10:39;;;;;;;4.60;2.90;;;;;;101128.77;;;;107089;1276;64736;-28
2022/04/16 00:13:06;;;;;;;4.60;2.50;;;;;;101131.02;;;;107059;1276;64863;-26
2022/04/16 00:15:34;;;;;;;4.40;2.50;;;;;;101128.88;;;;107136;1276;64840;-27
2022/04/16 00:18:05;;;;;;;4.90;3.00;;;;;;101129.77;;;;107136;1276;64890;-28
2022/04/16 00:20:34;;;;;;;4.50;2.60;;;;;;101131.95;;;;107139;1277;64874;-28
2022/04/16 00:23:01;;;;;;;5.30;2.80;;;;;;101134.73;;;;107133;1276;64781;-28
2022/04/16 00:25:33;;;;;;;4.20;2.70;;;;;;101138.96;;;;107031;1277;64749;-33
2022/04/16 00:28:04;;;;;;;4.00;2.40;;;;;;101139.88;;;;107094;1277;64763;-33
2022/04/16 00:30:37;;;;;;;4.50;2.60;;;;;;101143.52;;;;107067;1278;64769;-28
2022/04/16 00:33:10;;;;;;;4.50;2.50;;;;;;101145.52;;;;107115;1277;66211;-30
2022/04/16 00:35:42;;;;;;;4.40;2.40;;;;;;101146.30;;;;107172;1276;64844;-27
2022/04/16 00:38:12;;;;;;;4.40;2.40;;;;;;101145.85;;;;107121;1276;64742;-28
2022/04/16 00:40:39;;;;;;;4.60;2.40;;;;;;101150.31;;;;107114;1276;64990;-34
2022/04/16 00:43:28;;;;;;;4.80;2.20;;;;;;101148.88;;;;107175;1277;65179;-38
2022/04/16 00:45:56;;;;;;;4.70;2.50;;;;;;101153.27;;;;107053;1277;67189;-31
2022/04/16 00:48:24;;;;;;;4.80;2.30;;;;;;101152.98;;;;107147;1277;64789;-31
2022/04/16 00:50:55;;;;;;;4.30;2.30;;;;;;101156.30;;;;107133;1276;64888;-27
2022/04/16 00:53:25;;;;;;;4.70;2.30;;;;;;101156.80;;;;107155;1277;64778;-26
2022/04/16 00:55:52;;;;;;;4.20;2.20;;;;;;101156.95;;;;107084;1277;65073;-28
2022/04/16 00:58:20;;;;;;;4.30;2.20;;;;;;101159.26;;;;107122;1276;66414;-28
2022/04/16 01:00:47;;;;;;;4.20;2.20;;;;;;101163.71;;;;107141;1277;64873;-29
2022/04/16 01:03:18;;;;;;;4.10;2.20;;;;;;101165.14;;;;107019;1277;64849;-28
2022/04/16 01:05:45;;;;;;;4.70;2.20;;;;;;101167.20;;;;107114;1276;64725;-31
2022/04/16 01:08:12;;;;;;;3.50;1.90;;;;;;101171.14;;;;107151;1276;64738;-32
2022/04/16 01:10:39;;;;;;;4.10;2.30;;;;;;101175.71;;;;107118;1277;66494;-29
2022/04/16 01:13:10;;;;;;;3.80;2.00;;;;;;101175.48;;;;107039;1277;64875;-27
2022/04/16 01:15:39;;;;;;;4.10;1.80;;;;;;101175.45;;;;107137;1276;64860;-27
2022/04/16 01:18:10;;;;;;;3.60;1.80;;;;;;101180.47;;;;107127;1276;64728;-27
2022/04/16 01:20:41;;;;;;;4.10;2.10;;;;;;101184.43;;;;107130;1276;64839;-27
2022/04/16 01:23:08;;;;;;;3.70;1.90;;;;;;101188.52;;;;106984;1277;65262;-27
2022/04/16 01:25:36;;;;;;;4.10;1.90;;;;;;101188.39;;;;107127;1277;65591;-28
2022/04/16 01:28:40;;;;;;;4.00;2.20;;;;;;101192.60;;;;107123;1276;64986;-32
2022/04/16 01:31:07;;;;;;;4.10;2.00;;;;;;101192.83;;;;107108;1276;64808;-33
2022/04/16 01:33:35;;;;;;;3.70;2.10;;;;;;101193.80;;;;107142;1276;64652;-33
2022/04/16 01:36:03;;;;;;;4.00;1.80;;;;;;101199.09;;;;107013;1278;65008;-31
2022/04/16 01:38:33;;;;;;;4.10;2.00;;;;;;101202.57;;;;107025;1277;64975;-31
2022/04/16 01:41:04;;;;;;;4.10;2.20;;;;;;101208.90;;;;107135;1277;64879;-28
2022/04/16 01:43:35;;;;;;;3.70;1.80;;;;;;101209.44;;;;107030;1277;64763;-30
2022/04/16 01:46:06;;;;;;;3.70;1.80;;;;;;101209.49;;;;107141;1276;64884;-32
2022/04/16 01:48:37;;;;;;;3.70;1.70;;;;;;101214.49;;;;107126;1276;66161;-30
2022/04/16 01:51:07;;;;;;;3.90;2.00;;;;;;101215.26;;;;107105;1277;64744;-31
2022/04/16 01:53:38;;;;;;;3.60;1.70;;;;;;101215.21;;;;107114;1276;64742;-31
2022/04/16 01:56:05;;;;;;;3.30;1.70;;;;;;101214.38;;;;107121;1276;64750;-33
2022/04/16 01:58:38;;;;;;;4.10;2.00;;;;;;101221.61;;;;107149;1277;64891;-28
2022/04/16 02:01:05;;;;;;;4.00;1.80;;;;;;101226.27;;;;106943;1276;66614;-27
2022/04/16 02:03:34;;;;;;;3.70;1.70;;;;;;101227.67;;;;107101;1277;64725;-29
2022/04/16 02:06:05;;;;;;;3.70;1.80;;;;;;101223.45;;;;107149;1277;64763;-27
2022/04/16 02:08:32;;;;;;;4.30;1.70;;;;;;101229.25;;;;107077;1277;65507;-29
2022/04/16 02:11:02;;;;;;;3.20;1.70;;;;;;101231.08;;;;107132;1277;64730;-28
2022/04/16 02:13:32;;;;;;;3.50;1.80;;;;;;101232.45;;;;107134;1276;66152;-28
2022/04/16 02:16:02;;;;;;;3.70;1.90;;;;;;101234.48;;;;107107;1276;64741;-33
2022/04/16 02:18:31;;;;;;;3.80;1.80;;;;;;101238.02;;;;107137;1277;64758;-32
2022/04/16 02:21:02;;;;;;;3.80;1.90;;;;;;101235.67;;;;107116;1277;64933;-31
2022/04/16 02:23:32;;;;;;;3.70;1.90;;;;;;101237.14;;;;107186;1277;64637;-29
2022/04/16 02:26:07;;;;;;;3.50;2.00;;;;;;101239.83;;;;107102;1277;66470;-32
2022/04/16 02:28:34;;;;;;;4.40;2.40;;;;;;101241.83;;;;107114;1276;64746;-28
2022/04/16 02:31:04;;;;;;;3.70;2.00;;;;;;101243.48;;;;107115;1277;64814;-28
2022/04/16 02:33:32;;;;;;;3.30;1.70;;;;;;101247.33;;;;107089;1277;64991;-27
2022/04/16 02:36:04;;;;;;;3.20;1.50;;;;;;101255.16;;;;107129;1277;64790;-28
2022/04/16 02:38:31;;;;;;;3.60;1.80;;;;;;101261.26;;;;107129;1277;65277;-29
2022/04/16 02:40:59;;;;;;;3.40;1.80;;;;;;101258.92;;;;107107;1277;64852;-32
2022/04/16 02:43:29;;;;;;;3.70;2.00;;;;;;101267.68;;;;107128;1276;64783;-31
2022/04/16 02:48:42;;;;;;;3.20;1.70;;;;;;101271.47;;;;107146;1277;64876;-28
2022/04/16 02:51:09;;;;;;;3.70;1.70;;;;;;101274.87;;;;107035;1277;64772;-28
2022/04/16 02:53:37;;;;;;;3.70;1.90;;;;;;101276.23;;;;107126;1277;64744;-32
2022/04/16 02:56:04;;;;;;;3.20;1.70;;;;;;101277.75;;;;107105;1277;64862;-32
2022/04/16 02:58:36;;;;;;;3.60;1.60;;;;;;101281.36;;;;107130;1276;64835;-29
2022/04/16 03:01:06;;;;;;;3.40;1.60;;;;;;101280.77;;;;107025;1278;64809;-34
2022/04/16 03:03:33;;;;;;;4.00;1.90;;;;;;101284.29;;;;107112;1276;67331;-29
2022/04/16 03:06:00;;;;;;;3.70;1.80;;;;;;101288.84;;;;107120;1277;64854;-32
2022/04/16 03:08:33;;;;;;;3.50;1.60;;;;;;101291.00;;;;107137;1278;65445;-30
2022/04/16 03:11:06;;;;;;;3.20;1.60;;;;;;101292.83;;;;107097;1275;64756;-31
2022/04/16 03:13:36;;;;;;;3.10;1.60;;;;;;101293.64;;;;107164;1278;64785;-28
2022/04/16 03:18:50;;;;;;;3.70;2.00;;;;;;101304.45;;;;107123;1276;64949;-28
2022/04/16 03:21:17;;;;;;;3.50;1.90;;;;;;101303.98;;;;107121;1277;64521;-27
2022/04/16 03:23:45;;;;;;;3.50;1.90;;;;;;101308.47;;;;107108;1277;64754;-28
2022/04/16 03:26:12;;;;;;;3.40;1.60;;;;;;101310.66;;;;107128;1277;64859;-28
2022/04/16 03:28:40;;;;;;;3.40;1.70;;;;;;101314.21;;;;107035;1277;65814;-28
2022/04/16 03:31:08;;;;;;;3.90;1.70;;;;;;101317.98;;;;107097;1277;65468;-27
2022/04/16 03:33:38;;;;;;;2.90;1.40;;;;;;101320.61;;;;107090;1277;64837;-33
2022/04/16 03:36:05;;;;;;;3.30;1.60;;;;;;101321.78;;;;107109;1277;64927;-31
2022/04/16 03:38:36;;;;;;;3.20;1.80;;;;;;101326.63;;;;107160;1277;64772;-31
2022/04/16 03:41:06;;;;;;;3.40;1.50;;;;;;101326.15;;;;107128;1278;65966;-31
2022/04/16 03:43:33;;;;;;;2.80;1.40;;;;;;101333.91;;;;107108;1276;64786;-30
2022/04/16 03:46:00;;;;;;;3.50;1.50;;;;;;101337.15;;;;107130;1277;64779;-32
2022/04/16 03:48:33;;;;;;;3.90;1.80;;;;;;101343.21;;;;107127;1276;64784;-32
2022/04/16 03:51:00;;;;;;;2.90;1.50;;;;;;101349.25;;;;107135;1277;64849;-31
2022/04/16 03:53:27;;;;;;;3.30;1.60;;;;;;101350.54;;;;107122;1277;66414;-31
2022/04/16 04:01:45;;;;;;;3.70;1.60;;;;;;101367.38;;;;106827;1281;64871;-31
2022/04/16 04:04:12;;;;;;;2.80;1.50;;;;;;101370.02;;;;106833;1281;64793;-28
2022/04/16 04:06:42;;;;;;;3.80;1.60;;;;;;101376.80;;;;106820;1281;64945;-28
2022/04/16 04:09:12;;;;;;;3.00;1.30;;;;;;101376.12;;;;106863;1281;64882;-29
2022/04/16 04:11:43;;;;;;;3.50;1.70;;;;;;101381.15;;;;107020;1278;64795;-28
2022/04/16 04:14:10;;;;;;;3.10;1.50;;;;;;101384.96;;;;106609;1278;543718;-28
2022/04/16 04:16:37;;;;;;;3.90;1.60;;;;;;101388.95;;;;107128;1277;64759;-28
2022/04/16 04:19:04;;;;;;;3.20;1.50;;;;;;101391.86;;;;107124;1277;64861;-33
2022/04/16 04:21:32;;;;;;;3.50;1.50;;;;;;101397.78;;;;106966;1281;64785;-32
2022/04/16 04:23:59;;;;;;;2.80;1.30;;;;;;101402.97;;;;106985;1281;64905;-28
2022/04/16 04:26:29;;;;;;;3.20;1.60;;;;;;101404.53;;;;107012;1277;64907;-28
2022/04/16 04:28:56;;;;;;;3.30;1.70;;;;;;101408.20;;;;107026;1278;64758;-31
2022/04/16 04:31:23;;;;;;;3.70;1.50;;;;;;101410.61;;;;107045;1278;66140;-31
2022/04/16 04:33:50;;;;;;;2.90;1.40;;;;;;101412.33;;;;107021;1278;64748;-28
2022/04/16 04:36:18;;;;;;;3.30;1.50;;;;;;101417.98;;;;107020;1277;64899;-27
2022/04/16 04:38:45;;;;;;;3.60;1.70;;;;;;101418.45;;;;107020;1278;64856;-31
2022/04/16 04:41:12;;;;;;;3.00;1.40;;;;;;101422.45;;;;107044;1277;64941;-33
2022/04/16 04:43:43;;;;;;;2.70;1.40;;;;;;101427.67;;;;107048;1277;64930;-31
2022/04/16 04:46:10;;;;;;;3.40;1.50;;;;;;101432.66;;;;107031;1277;64875;-32
2022/04/16 04:48:37;;;;;;;3.60;1.70;;;;;;101440.15;;;;107029;1277;64856;-28
2022/04/16 04:51:04;;;;;;;3.00;1.30;;;;;;101446.70;;;;107067;1278;64807;-28
2022/04/16 04:53:32;;;;;;;3.90;1.40;;;;;;101449.16;;;;107076;1277;64994;-28
2022/04/16 04:55:59;;;;;;;3.20;1.70;;;;;;101450.59;;;;106965;1279;66474;-29
2022/04/16 04:58:31;;;;;;;3.30;1.50;;;;;;101454.02;;;;107008;1277;64876;-28
2022/04/16 05:00:58;;;;;;;3.10;1.50;;;;;;101452.73;;;;106993;1280;64874;-31
2022/04/16 05:03:25;;;;;;;3.10;1.40;;;;;;101452.38;;;;107034;1277;64879;-32
2022/04/16 05:05:52;;;;;;;3.40;1.40;;;;;;101457.02;;;;106997;1281;64837;-29
2022/04/16 05:08:19;;;;;;;3.10;1.30;;;;;;101457.00;;;;106941;1278;64966;-29
2022/04/16 05:10:47;;;;;;;3.40;1.30;;;;;;101462.85;;;;107038;1277;64770;-28
2022/04/16 05:13:15;;;;;;;2.80;1.30;;;;;;101462.45;;;;107028;1277;64909;-27
2022/04/16 05:15:42;;;;;;;2.80;1.40;;;;;;101465.09;;;;107026;1278;64742;-32
2022/04/16 05:18:12;;;;;;;2.90;1.20;;;;;;101467.67;;;;107040;1277;64883;-33
2022/04/16 05:20:39;;;;;;;2.80;1.20;;;;;;101472.87;;;;107111;1278;66498;-25
2022/04/16 05:23:09;;;;;;;3.40;1.40;;;;;;101480.45;;;;107125;1277;65928;-28
2022/04/16 05:25:39;;;;;;;3.00;1.10;;;;;;101486.79;;;;106951;1277;64824;-27
2022/04/16 05:28:10;;;;;;;3.80;1.40;;;;;;101489.90;;;;107117;1277;65022;-28
2022/04/16 05:30:48;;;;;;;2.40;1.20;;;;;;101492.23;;;;107129;1277;64774;-28
2022/04/16 05:36:09;;;;;;;3.40;1.40;;;;;;101497.43;;;;107119;1277;64752;-27
2022/04/16 05:38:36;;;;;;;3.20;1.60;;;;;;101501.42;;;;107123;1277;64799;-31
2022/04/16 05:41:07;;;;;;;3.10;1.60;;;;;;101501.72;;;;107112;1277;64701;-31
2022/04/16 05:43:34;;;;;;;3.40;1.00;;;;;;101504.96;;;;107130;1276;64898;-30
2022/04/16 05:46:05;;;;;;;3.70;1.30;;;;;;101508.86;;;;107159;1276;66253;-30
2022/04/16 05:48:33;;;;;;;4.40;1.40;;;;;;101513.05;;;;106966;1277;64854;-29
2022/04/16 05:51:01;;;;;;;3.20;1.40;;;;;;101513.95;;;;107018;1277;64919;-31
2022/04/16 05:53:32;;;;;;;3.00;1.20;;;;;;101516.40;;;;107104;1277;64882;-32
2022/04/16 05:56:00;;;;;;;3.10;1.30;;;;;;101516.81;;;;107140;1277;64854;-31
2022/04/16 05:58:27;;;;;;;3.10;1.20;;;;;;101523.29;;;;107134;1276;64743;-31
2022/04/16 06:00:55;;;;;;;2.40;1.10;;;;;;101521.16;;;;107099;1277;65104;-31
2022/04/16 06:03:23;;;;;;;2.40;1.10;;;;;;101523.97;;;;107112;1277;64730;-31
2022/04/16 06:05:52;;;;;;;3.70;1.40;;;;;;101520.38;;;;107093;1277;64758;-28
2022/04/16 06:08:22;;;;;;;5.10;1.30;;;;;;101523.77;;;;107031;1277;64863;-28
2022/04/16 06:10:49;;;;;;;2.80;1.30;;;;;;101528.78;;;;107157;1277;65534;-32
2022/04/16 06:13:21;;;;;;;2.90;1.30;;;;;;101525.71;;;;107132;1276;65347;-38
2022/04/16 06:15:48;;;;;;;2.40;1.20;;;;;;101529.48;;;;107074;1277;64762;-33
2022/04/16 06:18:19;;;;;;;2.90;1.20;;;;;;101528.58;;;;107123;1277;64982;-34
2022/04/16 06:20:46;;;;;;;2.10;1.10;;;;;;101527.52;;;;107058;1277;63588;-31
2022/04/16 06:23:22;;;;;;;2.20;1.00;;;;;;101533.41;;;;107116;1276;66465;-32
2022/04/16 06:25:50;;;;;;;3.20;1.30;;;;;;101531.21;;;;107140;1276;64879;-31
2022/04/16 06:28:21;;;;;;;4.20;1.40;;;;;;101536.77;;;;107153;1277;64699;-32
2022/04/16 06:30:48;;;;;;;4.10;1.10;;;;;;101534.56;;;;107162;1276;63582;-31
2022/04/16 06:33:16;;;;;;;3.20;1.30;;;;;;101535.06;;;;107152;1277;64764;-31
2022/04/16 06:35:44;;;;;;;2.80;1.30;;;;;;101541.71;;;;107135;1277;65913;-30
2022/04/16 06:38:11;;;;;;;3.70;1.40;;;;;;101542.50;;;;107063;1276;64750;-32
2022/04/16 06:40:41;;;;;;;3.80;1.40;;;;;;101542.92;;;;107009;1276;64768;-29
2022/04/16 06:43:12;;;;;;;3.20;1.20;;;;;;101554.44;;;;107115;1276;64831;-29
2022/04/16 06:45:43;;;;;;;2.60;1.20;;;;;;101555.21;;;;107035;1277;64753;-32
2022/04/16 06:48:13;;;;;;;2.50;1.00;;;;;;101556.05;;;;107040;1277;65918;-28
2022/04/16 06:50:40;;;;;;;2.30;1.10;;;;;;101549.98;;;;107116;1277;64886;-28
2022/04/16 06:53:08;;;;;;;2.60;1.10;;;;;;101550.84;;;;107133;1276;64789;-27
2022/04/16 06:55:35;;;;;;;3.40;1.20;;;;;;101549.34;;;;107145;1276;64754;-33
2022/04/16 06:58:07;;;;;;;3.70;1.40;;;;;;101552.82;;;;107058;1277;64869;-31
2022/04/16 07:00:38;;;;;;;3.10;1.20;;;;;;101559.58;;;;107119;1277;65477;-29
2022/04/16 07:03:08;;;;;;;3.50;1.30;;;;;;101559.02;;;;107130;1276;62481;-27
2022/04/16 07:05:39;;;;;;;2.00;1.00;;;;;;101555.15;;;;107091;1277;65068;-28
2022/04/16 07:08:07;;;;;;;2.90;1.30;;;;;;101564.16;;;;107155;1277;64914;-30
2022/04/16 07:10:39;;;;;;;3.00;1.20;;;;;;101571.87;;;;107083;1277;64807;-31
2022/04/16 07:13:09;;;;;;;1.90;0.90;;;;;;101575.66;;;;107021;1276;66212;-31
2022/04/16 07:15:39;;;;;;;2.60;1.00;;;;;;101575.98;;;;107145;1277;64895;-27
2022/04/16 07:18:09;;;;;;;3.20;1.20;;;;;;101577.98;;;;107139;1277;64754;-27
2022/04/16 07:20:41;;;;;;;3.00;1.20;;;;;;101587.17;;;;107121;1276;65065;-27
2022/04/16 07:23:08;;;;;;;2.60;1.20;;;;;;101586.23;;;;107042;1277;64885;-27
2022/04/16 07:25:39;;;;;;;2.90;1.20;;;;;;101597.89;;;;107200;1276;66541;-28
2022/04/16 07:28:11;;;;;;;2.60;1.20;;;;;;101601.34;;;;107152;1276;64858;-28
2022/04/16 07:30:41;;;;;;;3.40;1.40;;;;;;101601.45;;;;107081;1277;64846;-30
2022/04/16 07:33:12;;;;;;;2.30;1.10;;;;;;101606.27;;;;107113;1276;64812;-31
2022/04/16 07:35:43;;;;;;;2.60;1.00;;;;;;101606.81;;;;107131;1276;64856;-29
2022/04/16 07:38:13;;;;;;;2.50;1.30;;;;;;101600.80;;;;107161;1275;65449;-27
2022/04/16 07:40:43;;;;;;;2.20;1.10;;;;;;101602.77;;;;107015;1277;64707;-32
2022/04/16 07:43:10;;;;;;;3.10;1.30;;;;;;101602.77;;;;107111;1277;64814;-28
2022/04/16 07:45:42;;;;;;;4.00;1.30;;;;;;101603.23;;;;107041;1277;64869;-27
2022/04/16 07:48:09;;;;;;;3.00;1.10;;;;;;101604.77;;;;107156;1276;64731;-26
2022/04/16 07:50:39;;;;;;;2.80;1.20;;;;;;101611.14;;;;107124;1276;66504;-28
2022/04/16 07:53:07;;;;;;;3.90;1.50;;;;;;101604.55;;;;107016;1277;64716;-29
2022/04/16 07:55:37;;;;;;;2.80;1.20;;;;;;101610.79;;;;107041;1277;64754;-27
2022/04/16 07:58:08;;;;;;;2.90;1.10;;;;;;101618.10;;;;107131;1277;64897;-28
2022/04/16 08:00:35;;;;;;;2.50;1.30;;;;;;101626.41;;;;107136;1276;64878;-31
2022/04/16 08:03:06;;;;;;;3.00;1.20;;;;;;101625.33;;;;107026;1278;66746;-31
2022/04/16 08:05:37;;;;;;;2.20;1.00;;;;;;101629.13;;;;107078;1277;64786;-26
2022/04/16 08:08:09;;;;;;;3.00;1.20;;;;;;101629.14;;;;107119;1276;64769;-27
2022/04/16 08:10:37;;;;;;;4.10;1.10;;;;;;101623.52;;;;107153;1276;64787;-31
2022/04/16 08:13:07;;;;;;;3.90;1.20;;;;;;101625.19;;;;107046;1277;64964;-31
2022/04/16 08:15:35;;;;;;;3.30;1.50;;;;;;101625.60;;;;106968;1277;65982;-28
2022/04/16 08:18:07;;;;;;;2.80;1.20;;;;;;101626.38;;;;107036;1276;64785;-30
2022/04/16 08:20:38;;;;;;;2.60;1.10;;;;;;101624.13;;;;107126;1276;64754;-31
2022/04/16 08:23:09;;;;;;;3.10;1.20;;;;;;101630.03;;;;106952;1277;65604;-31
2022/04/16 08:28:09;;;;;;;2.50;1.10;;;;;;101628.58;;;;107146;1276;65080;-28
2022/04/16 08:30:39;;;;;;;2.50;1.20;;;;;;101626.79;;;;107130;1276;64779;-31
2022/04/16 08:33:17;;;;;;;3.30;1.10;;;;;;101632.84;;;;107099;1275;64880;-31
2022/04/16 08:35:45;;;;;;;3.50;1.20;;;;;;101631.32;;;;107009;1277;64737;-31
2022/04/16 08:38:16;;;;;;;4.80;1.50;;;;;;101634.29;;;;107054;1277;64744;-31
2022/04/16 08:40:44;;;;;;;4.70;1.60;;;;;;101628.90;;;;106962;1277;67916;-32
2022/04/16 08:43:15;;;;;;;2.90;1.20;;;;;;101630.40;;;;107108;1276;64708;-29
2022/04/16 08:45:42;;;;;;;3.70;1.30;;;;;;101633.91;;;;107165;1276;64763;-28
2022/04/16 08:48:14;;;;;;;4.10;1.40;;;;;;101636.59;;;;107025;1277;64821;-28
2022/04/16 08:50:43;;;;;;;4.90;1.40;;;;;;101635.97;;;;107002;1277;64914;-30
2022/04/16 08:53:15;;;;;;;3.60;1.20;;;;;;101642.67;;;;107153;1275;65279;-31
2022/04/16 08:55:42;;;;;;;3.20;1.30;;;;;;101642.52;;;;107165;1277;64875;-31
2022/04/16 08:58:12;;;;;;;4.70;1.60;;;;;;101638.14;;;;107112;1276;64849;-31
2022/04/16 09:00:40;;;;;;;4.20;1.40;;;;;;101644.12;;;;107051;1276;64763;-29
2022/04/16 09:03:09;;;;;;;5.20;1.60;;;;;;101637.52;;;;107163;1276;64712;-27
2022/04/16 09:05:37;;;;;;;3.90;1.30;;;;;;101633.61;;;;107145;1276;66001;-26
2022/04/16 09:08:08;;;;;;;2.80;1.30;;;;;;101622.77;;;;107025;1277;65022;-29
2022/04/16 09:10:43;;;;;;;4.00;1.30;;;;;;101627.91;;;;106951;1277;64880;-30
2022/04/16 09:13:16;;;;;;;4.20;1.30;;;;;;101630.08;;;;107135;1276;65216;-29
2022/04/16 09:15:47;;;;;;;3.00;1.30;;;;;;101632.91;;;;106991;1277;64867;-31
2022/04/16 09:18:19;;;;;;;2.80;1.20;;;;;;101629.16;;;;107128;1276;67791;-31
2022/04/16 09:20:47;;;;;;;3.40;1.10;;;;;;101636.23;;;;107141;1276;64886;-33
2022/04/16 09:23:22;;;;;;;2.20;1.00;;;;;;101641.58;;;;106962;1277;64980;-31
2022/04/16 09:25:51;;;;;;;3.10;1.20;;;;;;101638.39;;;;107051;1276;64945;-30
2022/04/16 09:28:22;;;;;;;3.60;1.10;;;;;;101630.86;;;;107155;1276;64783;-33
2022/04/16 09:30:56;;;;;;;2.80;1.10;;;;;;101643.48;;;;107021;1276;67346;-29
2022/04/16 09:33:25;;;;;;;3.60;1.30;;;;;;101641.91;;;;107112;1276;64743;-28
2022/04/16 09:35:55;;;;;;;4.60;1.40;;;;;;101648.70;;;;107001;1277;64759;-31
2022/04/16 09:38:30;;;;;;;5.10;1.30;;;;;;101648.89;;;;107122;1276;64783;-30
2022/04/16 09:41:04;;;;;;;3.70;1.20;;;;;;101641.40;;;;107144;1276;64777;-31
2022/04/16 09:43:36;;;;;;;3.70;1.30;;;;;;101650.36;;;;107081;1278;67414;-29
2022/04/16 09:46:12;;;;;;;4.60;1.40;;;;;;101651.23;;;;107138;1276;64759;-27
2022/04/16 09:48:45;;;;;;;4.70;1.40;;;;;;101655.46;;;;107171;1276;64813;-27
2022/04/16 09:51:17;;;;;;;3.90;1.30;;;;;;101650.92;;;;107007;1277;64731;-29
2022/04/16 09:53:45;;;;;;;5.20;1.50;;;;;;101653.09;;;;107136;1277;64931;-29
2022/04/16 09:56:17;;;;;;;6.90;1.60;;;;;;101652.69;;;;106952;1278;66178;-33
2022/04/16 09:58:52;;;;;;;4.80;1.50;;;;;;101651.09;;;;107169;1276;65001;-28
2022/04/16 10:01:22;;;;;;;5.30;1.80;;;;;;101647.49;;;;107031;1276;64860;-27
2022/04/16 10:03:53;;;;;;;5.60;1.40;;;;;;101643.45;;;;107103;1276;64860;-28
2022/04/16 10:06:25;;;;;;;4.70;1.10;;;;;;101641.38;;;;106994;1277;65672;-28
2022/04/16 10:08:52;;;;;;;2.90;1.30;;;;;;101645.35;;;;107125;1277;67292;-28
2022/04/16 10:11:21;;;;;;;4.30;1.40;;;;;;101652.25;;;;106972;1278;65162;-31
2022/04/16 10:14:04;;;;;;;3.40;1.20;;;;;;101653.45;;;;107039;1277;64943;-27
2022/04/16 10:16:51;;;;;;;4.40;1.40;;;;;;101650.59;;;;107047;1276;64851;-28
2022/04/16 10:19:18;;;;;;;3.80;1.50;;;;;;101643.45;;;;107067;1277;64753;-28
2022/04/16 10:21:46;;;;;;;4.60;1.40;;;;;;101644.86;;;;107173;1276;66471;-26
2022/04/16 10:24:23;;;;;;;4.60;1.80;;;;;;101649.13;;;;107013;1276;64627;-31
2022/04/16 10:26:52;;;;;;;3.30;1.20;;;;;;101649.48;;;;107034;1277;64863;-28
2022/04/16 10:29:23;;;;;;;3.90;1.60;;;;;;101658.70;;;;106975;1277;64872;-29
2022/04/16 10:31:50;;;;;;;5.20;2.10;;;;;;101654.16;;;;106988;1276;64822;-30
2022/04/16 10:34:29;;;;;;;3.50;1.50;;;;;;101649.57;;;;107032;1276;65811;-32
2022/04/16 10:36:56;;;;;;;4.30;1.40;;;;;;101644.29;;;;107012;1275;64882;-39
2022/04/16 10:39:29;;;;;;;3.80;1.50;;;;;;101645.30;;;;107136;1274;64892;-30
2022/04/16 10:42:04;;;;;;;3.30;1.30;;;;;;101640.83;;;;107034;1275;64835;-29
2022/04/16 10:44:47;;;;;;;3.90;1.90;;;;;;101644.79;;;;107030;1277;64870;-33
2022/04/16 10:47:16;;;;;;;3.60;1.40;;;;;;101645.19;;;;107013;1275;67136;-37
2022/04/16 10:49:44;;;;;;;3.50;1.30;;;;;;101641.98;;;;106994;1276;64876;-38
2022/04/16 10:52:23;;;;;;;3.60;1.30;;;;;;101639.55;;;;107069;1274;64867;-39
2022/04/16 10:55:01;;;;;;;2.60;1.20;;;;;;101638.19;;;;107033;1274;64870;-39
2022/04/16 10:57:28;;;;;;;4.10;1.90;;;;;;101642.41;;;;107043;1276;64971;-40
2022/04/16 11:00:12;;;;;;;4.40;1.40;;;;;;101646.55;;;;107149;1274;64914;-30
2022/04/16 11:02:39;;;;;;;3.70;1.30;;;;;;101644.59;;;;107013;1275;64950;-30
2022/04/16 11:05:09;;;;;;;3.90;1.30;;;;;;101645.25;;;;107098;1276;64758;-36
2022/04/16 11:07:42;;;;;;;2.90;1.10;;;;;;101643.01;;;;106995;1276;64873;-38
2022/04/16 11:10:13;;;;;;;3.50;1.30;;;;;;101647.45;;;;107089;1276;64845;-30
2022/04/16 11:12:44;;;;;;;2.90;1.10;;;;;;101647.45;;;;107164;1276;67629;-32
2022/04/16 11:15:24;;;;;;;2.80;1.10;;;;;;101654.75;;;;107064;1276;64858;-31
2022/04/16 11:18:00;;;;;;;3.00;1.20;;;;;;101658.70;;;;107127;1276;64760;-32
2022/04/16 11:20:30;;;;;;;2.90;1.00;;;;;;101654.83;;;;107143;1275;63484;-35
2022/04/16 11:22:58;;;;;;;3.80;1.20;;;;;;101650.09;;;;107145;1276;64885;-34
2022/04/16 11:34:14;;;;;;;2.30;1.10;;;;;;101655.40;;;;107051;1277;64845;-30
2022/04/16 11:36:37;;;;;;;2.40;1.00;;;;;;101656.57;;;;107120;1276;64760;-31
2022/04/16 11:39:04;;;;;;;3.00;1.20;;;;;;101649.59;;;;107106;1276;67729;-33
2022/04/16 11:41:34;;;;;;;2.70;1.30;;;;;;101665.35;;;;107122;1276;64764;-33
2022/04/16 11:44:02;;;;;;;2.90;1.10;;;;;;101668.08;;;;106991;1276;64856;-32
2022/04/16 11:46:38;;;;;;;2.60;1.10;;;;;;101662.94;;;;107150;1276;64888;-32
2022/04/16 11:49:11;;;;;;;2.50;1.00;;;;;;101662.35;;;;107041;1277;64878;-34
2022/04/16 11:51:41;;;;;;;2.30;1.10;;;;;;101671.25;;;;107075;1276;67459;-34
2022/04/16 11:54:11;;;;;;;2.10;0.90;;;;;;101665.67;;;;107012;1277;65011;-32
2022/04/16 11:56:49;;;;;;;4.20;1.30;;;;;;101671.72;;;;107047;1277;64882;-32
2022/04/16 11:59:26;;;;;;;3.40;1.20;;;;;;101678.35;;;;107021;1276;64885;-36
2022/04/16 12:02:09;;;;;;;3.10;1.10;;;;;;101680.77;;;;107131;1276;65917;-34
2022/04/16 12:04:42;;;;;;;2.40;1.10;;;;;;101674.65;;;;107119;1276;66363;-32
2022/04/16 12:07:17;;;;;;;3.30;1.20;;;;;;101675.41;;;;107024;1277;64751;-31
2022/04/16 12:09:49;;;;;;;2.80;1.00;;;;;;101662.64;;;;107116;1276;64781;-31
2022/04/16 12:12:22;;;;;;;2.80;1.00;;;;;;101673.25;;;;107134;1276;64908;-34
2022/04/16 12:14:52;;;;;;;3.00;1.00;;;;;;101675.33;;;;106555;1276;785837;-31
2022/04/16 12:17:29;;;;;;;2.10;0.90;;;;;;101672.05;;;;107072;1276;66492;-32
2022/04/16 12:20:09;;;;;;;3.00;1.10;;;;;;101677.93;;;;107148;1276;64844;-31
2022/04/16 12:23:05;;;;;;;2.80;1.30;;;;;;101681.12;;;;107138;1276;64830;-31
2022/04/16 12:25:35;;;;;;;2.30;1.10;;;;;;101689.97;;;;107106;1276;64924;-45
2022/04/16 12:28:11;;;;;;;2.50;1.10;;;;;;101683.38;;;;107139;1276;64868;-31
2022/04/16 12:30:51;;;;;;;2.90;1.10;;;;;;101673.61;;;;107151;1276;67718;-37
2022/04/16 12:33:25;;;;;;;3.30;1.20;;;;;;101684.02;;;;107111;1276;65503;-32
2022/04/16 12:35:56;;;;;;;2.40;1.10;;;;;;101687.51;;;;107159;1276;64770;-32
2022/04/16 12:38:24;;;;;;;3.00;1.10;;;;;;101683.59;;;;107126;1276;64622;-32
2022/04/16 12:41:05;;;;;;;2.80;1.20;;;;;;101679.35;;;;107165;1276;64715;-32
2022/04/16 12:43:37;;;;;;;3.90;1.30;;;;;;101676.77;;;;107038;1277;66115;-30
2022/04/16 12:46:07;;;;;;;3.30;1.10;;;;;;101674.00;;;;107140;1276;64892;-36
2022/04/16 12:48:38;;;;;;;2.00;0.90;;;;;;101673.23;;;;107079;1276;64978;-31
2022/04/16 12:51:05;;;;;;;3.00;1.00;;;;;;101682.13;;;;107110;1276;64769;-32
2022/04/16 12:53:35;;;;;;;3.90;1.30;;;;;;101684.52;;;;107151;1275;64850;-34
2022/04/16 12:56:03;;;;;;;2.20;1.00;;;;;;101686.13;;;;107139;1276;66490;-30
2022/04/16 12:58:33;;;;;;;3.70;1.10;;;;;;101682.92;;;;107138;1276;64803;-32
2022/04/16 13:01:00;;;;;;;2.80;1.40;;;;;;101677.35;;;;107129;1276;64750;-32
2022/04/16 13:03:29;;;;;;;2.30;1.10;;;;;;101677.71;;;;107098;1275;64762;-31
2022/04/16 13:06:00;;;;;;;3.40;1.20;;;;;;101680.00;;;;107061;1277;64792;-31
2022/04/16 13:08:38;;;;;;;2.90;1.10;;;;;;101687.20;;;;107073;1277;65893;-32
2022/04/16 13:11:11;;;;;;;3.90;1.30;;;;;;101693.73;;;;107011;1277;64767;-32
2022/04/16 13:13:38;;;;;;;2.90;1.20;;;;;;101694.16;;;;107166;1276;64863;-32
2022/04/16 13:16:08;;;;;;;3.50;1.10;;;;;;101692.36;;;;107123;1276;64963;-32
2022/04/16 13:18:38;;;;;;;2.90;1.20;;;;;;101689.74;;;;107160;1276;64758;-31
2022/04/16 13:21:08;;;;;;;3.40;1.10;;;;;;101686.09;;;;107122;1276;66514;-32
2022/04/16 13:23:35;;;;;;;2.60;1.00;;;;;;101686.30;;;;107086;1276;64777;-31
2022/04/16 13:26:03;;;;;;;3.30;1.20;;;;;;101676.67;;;;107118;1276;64881;-32
2022/04/16 13:28:35;;;;;;;3.50;1.40;;;;;;101678.11;;;;107016;1276;64701;-32